sensor_id;sensor_type;location;lat;lon;timestamp;temperature;humidity
25753;DHT22;13600;50.816;4.416;2022-07-10T00:01:06;18.30;99.90
25753;DHT22;13600;50.816;4.416;2022-07-10T00:03:31;18.00;99.90
25753;DHT22;13600;50.816;4.416;2022-07-10T00:05:57;17.90;99.90
25753;DHT22;13600;50.816;4.416;2022-07-10T00:08:23;17.90;99.90
25753;DHT22;13600;50.816;4.416;2022-07-10T00:10:49;18.10;99.90
25753;DHT22;13600;50.816;4.416;2022-07-10T00:13:14;18.20;99.90
25753;DHT22;13600;50.816;4.416;2022-07-10T00:15:40;17.90;99.90
25753;DHT22;13600;50.816;4.416;2022-07-10T00:18:06;17.70;99.90
25753;DHT22;13600;50.816;4.416;2022-07-10T00:20:31;17.70;99.90
25753;DHT22;13600;50.816;4.416;2022-07-10T00:22:58;17.80;99.90
25753;DHT22;13600;50.816;4.416;2022-07-10T00:25:24;17.70;99.90
25753;DHT22;13600;50.816;4.416;2022-07-10T00:27:49;17.70;99.90
25753;DHT22;13600;50.816;4.416;2022-07-10T00:30:15;17.90;99.90
25753;DHT22;13600;50.816;4.416;2022-07-10T00:32:41;18.00;99.90
25753;DHT22;13600;50.816;4.416;2022-07-10T00:35:07;18.00;99.90
25753;DHT22;13600;50.816;4.416;2022-07-10T00:37:33;18.00;99.90
25753;DHT22;13600;50.816;4.416;2022-07-10T00:39:59;18.20;99.90
25753;DHT22;13600;50.816;4.416;2022-07-10T00:42:25;18.00;99.90
25753;DHT22;13600;50.816;4.416;2022-07-10T00:44:51;17.70;99.90
25753;DHT22;13600;50.816;4.416;2022-07-10T00:47:17;17.80;99.90
25753;DHT22;13600;50.816;4.416;2022-07-10T00:49:45;17.70;99.90
25753;DHT22;13600;50.816;4.416;2022-07-10T00:52:15;17.80;99.90
25753;DHT22;13600;50.816;4.416;2022-07-10T00:54:43;17.90;99.90
25753;DHT22;13600;50.816;4.416;2022-07-10T00:57:10;17.80;99.90
25753;DHT22;13600;50.816;4.416;2022-07-10T00:59:37;17.70;99.90
25753;DHT22;13600;50.816;4.416;2022-07-10T01:02:04;17.70;99.90
25753;DHT22;13600;50.816;4.416;2022-07-10T01:04:31;17.90;99.90
25753;DHT22;13600;50.816;4.416;2022-07-10T01:06:57;18.00;99.90
25753;DHT22;13600;50.816;4.416;2022-07-10T01:09:23;17.80;99.90
25753;DHT22;13600;50.816;4.416;2022-07-10T01:11:49;17.70;99.90
25753;DHT22;13600;50.816;4.416;2022-07-10T01:14:15;17.70;99.90
25753;DHT22;13600;50.816;4.416;2022-07-10T01:16:42;17.80;99.90
25753;DHT22;13600;50.816;4.416;2022-07-10T01:19:07;18.00;99.90
25753;DHT22;13600;50.816;4.416;2022-07-10T01:21:35;18.00;99.90
25753;DHT22;13600;50.816;4.416;2022-07-10T01:24:05;17.80;99.90
25753;DHT22;13600;50.816;4.416;2022-07-10T01:26:31;17.50;99.90
25753;DHT22;13600;50.816;4.416;2022-07-10T01:28:58;17.40;99.90
25753;DHT22;13600;50.816;4.416;2022-07-10T01:31:26;17.60;99.90
25753;DHT22;13600;50.816;4.416;2022-07-10T01:33:52;17.50;99.90
25753;DHT22;13600;50.816;4.416;2022-07-10T01:36:20;17.40;99.90
25753;DHT22;13600;50.816;4.416;2022-07-10T01:38:46;17.20;99.90
25753;DHT22;13600;50.816;4.416;2022-07-10T01:41:12;17.20;99.90
25753;DHT22;13600;50.816;4.416;2022-07-10T01:43:38;17.10;99.90
25753;DHT22;13600;50.816;4.416;2022-07-10T01:46:08;17.30;99.90
25753;DHT22;13600;50.816;4.416;2022-07-10T01:48:37;17.50;99.90
25753;DHT22;13600;50.816;4.416;2022-07-10T01:51:04;17.70;99.90
25753;DHT22;13600;50.816;4.416;2022-07-10T01:53:30;17.70;99.90
25753;DHT22;13600;50.816;4.416;2022-07-10T01:55:55;17.50;99.90
25753;DHT22;13600;50.816;4.416;2022-07-10T01:58:21;17.20;99.90
25753;DHT22;13600;50.816;4.416;2022-07-10T02:00:47;17.00;99.90
25753;DHT22;13600;50.816;4.416;2022-07-10T02:03:13;17.00;99.90
25753;DHT22;13600;50.816;4.416;2022-07-10T02:05:57;16.90;99.90
25753;DHT22;13600;50.816;4.416;2022-07-10T02:08:23;16.90;99.90
25753;DHT22;13600;50.816;4.416;2022-07-10T02:10:49;16.80;99.90
25753;DHT22;13600;50.816;4.416;2022-07-10T02:13:15;16.80;99.90
25753;DHT22;13600;50.816;4.416;2022-07-10T02:15:43;16.80;99.90
25753;DHT22;13600;50.816;4.416;2022-07-10T02:18:10;16.80;99.90
25753;DHT22;13600;50.816;4.416;2022-07-10T02:20:36;16.80;99.90
25753;DHT22;13600;50.816;4.416;2022-07-10T02:23:01;16.90;99.90
25753;DHT22;13600;50.816;4.416;2022-07-10T02:25:27;16.80;99.90
25753;DHT22;13600;50.816;4.416;2022-07-10T02:27:53;17.00;99.90
25753;DHT22;13600;50.816;4.416;2022-07-10T02:30:19;17.20;99.90
25753;DHT22;13600;50.816;4.416;2022-07-10T02:32:45;17.50;99.90
25753;DHT22;13600;50.816;4.416;2022-07-10T02:35:10;17.40;99.90
25753;DHT22;13600;50.816;4.416;2022-07-10T02:37:36;17.20;99.90
25753;DHT22;13600;50.816;4.416;2022-07-10T02:40:02;16.90;99.90
25753;DHT22;13600;50.816;4.416;2022-07-10T02:42:28;16.90;99.90
25753;DHT22;13600;50.816;4.416;2022-07-10T02:44:53;16.90;99.90
25753;DHT22;13600;50.816;4.416;2022-07-10T02:47:19;16.90;99.90
25753;DHT22;13600;50.816;4.416;2022-07-10T02:49:44;17.00;99.90
25753;DHT22;13600;50.816;4.416;2022-07-10T02:52:10;17.00;99.90
25753;DHT22;13600;50.816;4.416;2022-07-10T02:54:36;16.90;99.90
25753;DHT22;13600;50.816;4.416;2022-07-10T02:57:02;16.80;99.90
25753;DHT22;13600;50.816;4.416;2022-07-10T02:59:28;16.80;99.90
25753;DHT22;13600;50.816;4.416;2022-07-10T03:01:53;16.60;99.90
25753;DHT22;13600;50.816;4.416;2022-07-10T03:04:19;16.60;99.90
25753;DHT22;13600;50.816;4.416;2022-07-10T03:06:45;16.70;99.90
25753;DHT22;13600;50.816;4.416;2022-07-10T03:09:10;16.80;99.90
25753;DHT22;13600;50.816;4.416;2022-07-10T03:11:36;16.70;99.90
25753;DHT22;13600;50.816;4.416;2022-07-10T03:14:02;16.60;99.90
25753;DHT22;13600;50.816;4.416;2022-07-10T03:16:28;16.50;99.90
25753;DHT22;13600;50.816;4.416;2022-07-10T03:18:53;16.40;99.90
25753;DHT22;13600;50.816;4.416;2022-07-10T03:21:19;16.40;99.90
25753;DHT22;13600;50.816;4.416;2022-07-10T03:23:45;16.40;99.90
25753;DHT22;13600;50.816;4.416;2022-07-10T03:26:10;16.50;99.90
25753;DHT22;13600;50.816;4.416;2022-07-10T03:28:36;16.30;99.90
25753;DHT22;13600;50.816;4.416;2022-07-10T03:31:02;16.20;99.90
25753;DHT22;13600;50.816;4.416;2022-07-10T03:33:27;16.20;99.90
25753;DHT22;13600;50.816;4.416;2022-07-10T03:35:54;16.30;99.90
25753;DHT22;13600;50.816;4.416;2022-07-10T03:38:19;16.50;99.90
25753;DHT22;13600;50.816;4.416;2022-07-10T03:40:45;16.60;99.90
25753;DHT22;13600;50.816;4.416;2022-07-10T03:43:14;16.30;99.90
25753;DHT22;13600;50.816;4.416;2022-07-10T03:45:39;16.10;99.90
25753;DHT22;13600;50.816;4.416;2022-07-10T03:48:05;16.00;99.90
25753;DHT22;13600;50.816;4.416;2022-07-10T03:50:32;16.00;99.90
25753;DHT22;13600;50.816;4.416;2022-07-10T03:52:58;16.10;99.90
25753;DHT22;13600;50.816;4.416;2022-07-10T03:55:24;15.80;99.90
25753;DHT22;13600;50.816;4.416;2022-07-10T03:57:49;15.70;99.90
25753;DHT22;13600;50.816;4.416;2022-07-10T04:00:29;15.70;99.90
25753;DHT22;13600;50.816;4.416;2022-07-10T04:02:59;15.80;99.90
25753;DHT22;13600;50.816;4.416;2022-07-10T04:05:26;15.80;99.90
25753;DHT22;13600;50.816;4.416;2022-07-10T04:07:52;15.80;99.90
25753;DHT22;13600;50.816;4.416;2022-07-10T04:10:18;15.80;99.90
25753;DHT22;13600;50.816;4.416;2022-07-10T04:12:44;15.90;99.90
25753;DHT22;13600;50.816;4.416;2022-07-10T04:15:11;15.90;99.90
25753;DHT22;13600;50.816;4.416;2022-07-10T04:17:37;16.00;99.90
25753;DHT22;13600;50.816;4.416;2022-07-10T04:20:03;16.10;99.90
25753;DHT22;13600;50.816;4.416;2022-07-10T04:22:29;16.00;99.90
25753;DHT22;13600;50.816;4.416;2022-07-10T04:24:55;16.20;99.90
25753;DHT22;13600;50.816;4.416;2022-07-10T04:27:20;16.20;99.90
25753;DHT22;13600;50.816;4.416;2022-07-10T04:29:46;16.10;99.90
25753;DHT22;13600;50.816;4.416;2022-07-10T04:32:12;16.20;99.90
25753;DHT22;13600;50.816;4.416;2022-07-10T04:34:39;15.90;99.90
25753;DHT22;13600;50.816;4.416;2022-07-10T04:37:05;15.90;99.90
25753;DHT22;13600;50.816;4.416;2022-07-10T04:39:33;15.80;99.90
25753;DHT22;13600;50.816;4.416;2022-07-10T04:42:00;16.00;99.90
25753;DHT22;13600;50.816;4.416;2022-07-10T04:44:26;16.20;99.90
25753;DHT22;13600;50.816;4.416;2022-07-10T04:46:51;16.20;99.90
25753;DHT22;13600;50.816;4.416;2022-07-10T04:49:17;16.30;99.90
25753;DHT22;13600;50.816;4.416;2022-07-10T04:51:44;16.30;99.90
25753;DHT22;13600;50.816;4.416;2022-07-10T04:54:09;16.20;99.90
25753;DHT22;13600;50.816;4.416;2022-07-10T04:56:37;16.20;99.90
25753;DHT22;13600;50.816;4.416;2022-07-10T04:59:03;16.10;99.90
25753;DHT22;13600;50.816;4.416;2022-07-10T05:01:28;16.00;99.90
25753;DHT22;13600;50.816;4.416;2022-07-10T05:03:54;16.10;99.90
25753;DHT22;13600;50.816;4.416;2022-07-10T05:06:20;16.20;99.90
25753;DHT22;13600;50.816;4.416;2022-07-10T05:08:45;16.50;99.90
25753;DHT22;13600;50.816;4.416;2022-07-10T05:11:11;16.60;99.90
25753;DHT22;13600;50.816;4.416;2022-07-10T05:13:37;16.80;99.90
25753;DHT22;13600;50.816;4.416;2022-07-10T05:16:04;16.90;99.90
25753;DHT22;13600;50.816;4.416;2022-07-10T05:18:29;17.00;99.90
25753;DHT22;13600;50.816;4.416;2022-07-10T05:20:55;17.00;99.90
25753;DHT22;13600;50.816;4.416;2022-07-10T05:23:21;16.90;99.90
25753;DHT22;13600;50.816;4.416;2022-07-10T05:25:47;16.80;99.90
25753;DHT22;13600;50.816;4.416;2022-07-10T05:28:13;16.90;99.90
25753;DHT22;13600;50.816;4.416;2022-07-10T05:30:41;17.10;99.90
25753;DHT22;13600;50.816;4.416;2022-07-10T05:33:07;17.00;99.90
25753;DHT22;13600;50.816;4.416;2022-07-10T05:35:33;17.20;99.90
25753;DHT22;13600;50.816;4.416;2022-07-10T05:37:58;17.20;99.90
25753;DHT22;13600;50.816;4.416;2022-07-10T05:40:24;17.30;99.90
25753;DHT22;13600;50.816;4.416;2022-07-10T05:42:50;17.30;99.90
25753;DHT22;13600;50.816;4.416;2022-07-10T05:45:16;17.40;99.90
25753;DHT22;13600;50.816;4.416;2022-07-10T05:47:41;17.50;99.90
25753;DHT22;13600;50.816;4.416;2022-07-10T05:50:07;17.60;99.90
25753;DHT22;13600;50.816;4.416;2022-07-10T05:52:33;17.60;99.90
25753;DHT22;13600;50.816;4.416;2022-07-10T05:54:59;17.60;99.90
25753;DHT22;13600;50.816;4.416;2022-07-10T05:57:26;17.80;99.90
25753;DHT22;13600;50.816;4.416;2022-07-10T05:59:51;18.10;99.90
25753;DHT22;13600;50.816;4.416;2022-07-10T06:02:17;18.20;99.90
25753;DHT22;13600;50.816;4.416;2022-07-10T06:04:43;18.10;99.90
25753;DHT22;13600;50.816;4.416;2022-07-10T06:07:09;18.20;99.90
25753;DHT22;13600;50.816;4.416;2022-07-10T06:09:35;18.30;99.90
25753;DHT22;13600;50.816;4.416;2022-07-10T06:12:02;18.60;99.90
25753;DHT22;13600;50.816;4.416;2022-07-10T06:14:29;18.60;99.90
25753;DHT22;13600;50.816;4.416;2022-07-10T06:16:54;18.80;99.90
25753;DHT22;13600;50.816;4.416;2022-07-10T06:19:20;18.90;99.90
25753;DHT22;13600;50.816;4.416;2022-07-10T06:21:46;19.00;99.90
25753;DHT22;13600;50.816;4.416;2022-07-10T06:24:12;19.40;99.90
25753;DHT22;13600;50.816;4.416;2022-07-10T06:26:38;19.30;99.90
25753;DHT22;13600;50.816;4.416;2022-07-10T06:29:04;19.40;99.90
25753;DHT22;13600;50.816;4.416;2022-07-10T06:31:30;19.40;99.90
25753;DHT22;13600;50.816;4.416;2022-07-10T06:33:56;19.40;99.90
25753;DHT22;13600;50.816;4.416;2022-07-10T06:36:22;19.40;99.90
25753;DHT22;13600;50.816;4.416;2022-07-10T06:38:47;19.30;99.90
25753;DHT22;13600;50.816;4.416;2022-07-10T06:41:13;19.50;99.90
25753;DHT22;13600;50.816;4.416;2022-07-10T06:43:39;19.80;99.90
25753;DHT22;13600;50.816;4.416;2022-07-10T06:46:06;19.90;99.90
25753;DHT22;13600;50.816;4.416;2022-07-10T06:48:31;19.90;99.90
25753;DHT22;13600;50.816;4.416;2022-07-10T06:50:58;20.00;99.90
25753;DHT22;13600;50.816;4.416;2022-07-10T06:53:23;20.10;99.90
25753;DHT22;13600;50.816;4.416;2022-07-10T06:55:53;20.20;99.90
25753;DHT22;13600;50.816;4.416;2022-07-10T06:58:19;20.40;99.90
25753;DHT22;13600;50.816;4.416;2022-07-10T07:00:44;20.40;99.90
25753;DHT22;13600;50.816;4.416;2022-07-10T07:03:10;20.60;99.90
25753;DHT22;13600;50.816;4.416;2022-07-10T07:05:36;20.60;99.90
25753;DHT22;13600;50.816;4.416;2022-07-10T07:08:02;20.60;99.90
25753;DHT22;13600;50.816;4.416;2022-07-10T07:10:27;20.60;99.90
25753;DHT22;13600;50.816;4.416;2022-07-10T07:12:54;20.60;99.90
25753;DHT22;13600;50.816;4.416;2022-07-10T07:15:20;20.70;99.90
25753;DHT22;13600;50.816;4.416;2022-07-10T07:17:49;20.70;99.90
25753;DHT22;13600;50.816;4.416;2022-07-10T07:20:35;20.70;99.90
25753;DHT22;13600;50.816;4.416;2022-07-10T07:23:19;20.70;99.90
25753;DHT22;13600;50.816;4.416;2022-07-10T07:25:46;20.80;99.90
25753;DHT22;13600;50.816;4.416;2022-07-10T07:28:13;20.90;99.90
25753;DHT22;13600;50.816;4.416;2022-07-10T07:30:43;21.30;99.90
25753;DHT22;13600;50.816;4.416;2022-07-10T07:33:09;21.60;99.90
25753;DHT22;13600;50.816;4.416;2022-07-10T07:35:37;21.70;99.90
25753;DHT22;13600;50.816;4.416;2022-07-10T07:38:03;21.80;99.90
25753;DHT22;13600;50.816;4.416;2022-07-10T07:40:29;21.90;99.90
25753;DHT22;13600;50.816;4.416;2022-07-10T07:42:55;22.00;99.90
25753;DHT22;13600;50.816;4.416;2022-07-10T07:45:22;21.80;99.90
25753;DHT22;13600;50.816;4.416;2022-07-10T07:50:17;22.50;99.90
25753;DHT22;13600;50.816;4.416;2022-07-10T07:52:44;22.80;99.90
25753;DHT22;13600;50.816;4.416;2022-07-10T07:55:10;23.20;99.90
25753;DHT22;13600;50.816;4.416;2022-07-10T07:57:37;24.00;99.90
25753;DHT22;13600;50.816;4.416;2022-07-10T08:00:07;25.00;99.90
25753;DHT22;13600;50.816;4.416;2022-07-10T08:02:34;25.50;99.90
25753;DHT22;13600;50.816;4.416;2022-07-10T08:05:00;25.70;99.90
25753;DHT22;13600;50.816;4.416;2022-07-10T08:07:40;25.30;99.90
25753;DHT22;13600;50.816;4.416;2022-07-10T08:10:11;25.80;99.90
25753;DHT22;13600;50.816;4.416;2022-07-10T08:12:38;26.10;99.90
25753;DHT22;13600;50.816;4.416;2022-07-10T08:15:06;26.00;99.90
25753;DHT22;13600;50.816;4.416;2022-07-10T08:17:32;26.60;99.10
25753;DHT22;13600;50.816;4.416;2022-07-10T08:19:58;26.90;97.90
25753;DHT22;13600;50.816;4.416;2022-07-10T08:22:23;27.30;96.20
25753;DHT22;13600;50.816;4.416;2022-07-10T08:24:49;27.30;95.60
25753;DHT22;13600;50.816;4.416;2022-07-10T08:27:15;26.90;96.10
25753;DHT22;13600;50.816;4.416;2022-07-10T08:29:41;27.40;95.40
25753;DHT22;13600;50.816;4.416;2022-07-10T08:32:07;28.20;93.20
25753;DHT22;13600;50.816;4.416;2022-07-10T08:34:35;28.30;91.30
25753;DHT22;13600;50.816;4.416;2022-07-10T08:37:01;28.50;90.30
25753;DHT22;13600;50.816;4.416;2022-07-10T08:39:27;28.70;91.40
25753;DHT22;13600;50.816;4.416;2022-07-10T08:41:53;28.80;90.10
25753;DHT22;13600;50.816;4.416;2022-07-10T08:44:19;28.90;88.50
25753;DHT22;13600;50.816;4.416;2022-07-10T08:46:45;29.60;86.10
25753;DHT22;13600;50.816;4.416;2022-07-10T08:49:11;30.10;83.80
25753;DHT22;13600;50.816;4.416;2022-07-10T08:51:41;31.20;78.60
25753;DHT22;13600;50.816;4.416;2022-07-10T08:54:09;32.00;77.10
25753;DHT22;13600;50.816;4.416;2022-07-10T08:56:36;31.80;73.60
25753;DHT22;13600;50.816;4.416;2022-07-10T08:59:04;30.90;76.40
25753;DHT22;13600;50.816;4.416;2022-07-10T09:01:30;31.50;74.80
25753;DHT22;13600;50.816;4.416;2022-07-10T09:03:56;30.50;75.20
25753;DHT22;13600;50.816;4.416;2022-07-10T09:06:22;29.40;78.50
25753;DHT22;13600;50.816;4.416;2022-07-10T09:09:07;29.20;80.60
25753;DHT22;13600;50.816;4.416;2022-07-10T09:11:33;29.60;80.40
25753;DHT22;13600;50.816;4.416;2022-07-10T09:14:04;29.90;78.70
25753;DHT22;13600;50.816;4.416;2022-07-10T09:16:34;29.30;80.60
25753;DHT22;13600;50.816;4.416;2022-07-10T09:19:16;29.00;81.30
25753;DHT22;13600;50.816;4.416;2022-07-10T09:21:42;28.80;82.70
25753;DHT22;13600;50.816;4.416;2022-07-10T09:24:08;28.60;82.70
25753;DHT22;13600;50.816;4.416;2022-07-10T09:26:38;29.00;82.20
25753;DHT22;13600;50.816;4.416;2022-07-10T09:29:09;29.70;80.40
25753;DHT22;13600;50.816;4.416;2022-07-10T09:31:53;30.00;78.00
25753;DHT22;13600;50.816;4.416;2022-07-10T09:39:57;31.10;75.90
25753;DHT22;13600;50.816;4.416;2022-07-10T09:47:59;31.00;77.40
25753;DHT22;13600;50.816;4.416;2022-07-10T09:50:34;33.10;72.20
25753;DHT22;13600;50.816;4.416;2022-07-10T09:53:05;34.30;69.30
25753;DHT22;13600;50.816;4.416;2022-07-10T09:55:33;36.00;65.40
25753;DHT22;13600;50.816;4.416;2022-07-10T09:58:04;36.40;61.50
25753;DHT22;13600;50.816;4.416;2022-07-10T10:00:35;37.70;59.70
25753;DHT22;13600;50.816;4.416;2022-07-10T10:03:02;39.10;56.50
25753;DHT22;13600;50.816;4.416;2022-07-10T10:05:42;39.40;55.00
25753;DHT22;13600;50.816;4.416;2022-07-10T10:08:37;40.30;53.70
25753;DHT22;13600;50.816;4.416;2022-07-10T10:10:59;39.50;53.20
25753;DHT22;13600;50.816;4.416;2022-07-10T10:13:26;40.70;52.20
25753;DHT22;13600;50.816;4.416;2022-07-10T10:15:53;41.30;50.80
25753;DHT22;13600;50.816;4.416;2022-07-10T10:18:21;42.60;49.10
25753;DHT22;13600;50.816;4.416;2022-07-10T10:20:48;43.50;48.40
25753;DHT22;13600;50.816;4.416;2022-07-10T10:23:15;44.20;46.40
25753;DHT22;13600;50.816;4.416;2022-07-10T10:25:46;44.50;45.60
25753;DHT22;13600;50.816;4.416;2022-07-10T10:28:16;44.10;45.20
25753;DHT22;13600;50.816;4.416;2022-07-10T10:30:44;41.30;46.70
25753;DHT22;13600;50.816;4.416;2022-07-10T10:35:58;37.80;50.40
25753;DHT22;13600;50.816;4.416;2022-07-10T10:38:25;36.30;52.40
25753;DHT22;13600;50.816;4.416;2022-07-10T10:44:24;33.00;57.20
25753;DHT22;13600;50.816;4.416;2022-07-10T10:49:18;31.80;60.10
25753;DHT22;13600;50.816;4.416;2022-07-10T10:54:22;30.70;63.70
25753;DHT22;13600;50.816;4.416;2022-07-10T10:57:11;30.30;65.50
25753;DHT22;13600;50.816;4.416;2022-07-10T10:59:53;30.00;65.60
25753;DHT22;13600;50.816;4.416;2022-07-10T11:02:27;30.00;66.60
25753;DHT22;13600;50.816;4.416;2022-07-10T11:08:02;30.50;65.50
25753;DHT22;13600;50.816;4.416;2022-07-10T11:10:30;30.40;65.20
25753;DHT22;13600;50.816;4.416;2022-07-10T11:15:28;30.80;65.60
25753;DHT22;13600;50.816;4.416;2022-07-10T11:20:47;30.60;66.10
25753;DHT22;13600;50.816;4.416;2022-07-10T11:26:36;29.70;67.70
25753;DHT22;13600;50.816;4.416;2022-07-10T11:29:05;29.60;69.30
25753;DHT22;13600;50.816;4.416;2022-07-10T11:31:31;29.70;69.00
25753;DHT22;13600;50.816;4.416;2022-07-10T11:34:03;29.90;68.20
25753;DHT22;13600;50.816;4.416;2022-07-10T11:36:29;30.00;67.70
25753;DHT22;13600;50.816;4.416;2022-07-10T11:38:58;29.70;67.70
25753;DHT22;13600;50.816;4.416;2022-07-10T11:41:24;29.60;68.60
25753;DHT22;13600;50.816;4.416;2022-07-10T11:43:51;29.60;69.70
25753;DHT22;13600;50.816;4.416;2022-07-10T11:46:19;30.20;69.90
25753;DHT22;13600;50.816;4.416;2022-07-10T11:48:47;30.80;67.40
25753;DHT22;13600;50.816;4.416;2022-07-10T11:51:20;31.30;65.80
25753;DHT22;13600;50.816;4.416;2022-07-10T11:53:58;31.30;66.70
25753;DHT22;13600;50.816;4.416;2022-07-10T11:56:25;31.10;66.70
25753;DHT22;13600;50.816;4.416;2022-07-10T11:59:12;31.00;67.20
25753;DHT22;13600;50.816;4.416;2022-07-10T12:04:09;30.80;67.60
25753;DHT22;13600;50.816;4.416;2022-07-10T12:06:37;31.10;67.40
25753;DHT22;13600;50.816;4.416;2022-07-10T12:09:04;30.40;68.80
25753;DHT22;13600;50.816;4.416;2022-07-10T12:11:30;30.90;68.90
25753;DHT22;13600;50.816;4.416;2022-07-10T12:16:38;31.60;65.20
25753;DHT22;13600;50.816;4.416;2022-07-10T12:19:06;32.30;64.10
25753;DHT22;13600;50.816;4.416;2022-07-10T12:21:32;32.10;63.50
25753;DHT22;13600;50.816;4.416;2022-07-10T12:23:58;32.70;63.60
25753;DHT22;13600;50.816;4.416;2022-07-10T12:26:35;33.70;60.80
25753;DHT22;13600;50.816;4.416;2022-07-10T12:29:01;33.60;61.30
25753;DHT22;13600;50.816;4.416;2022-07-10T12:31:32;33.80;61.10
25753;DHT22;13600;50.816;4.416;2022-07-10T12:34:03;33.40;62.30
25753;DHT22;13600;50.816;4.416;2022-07-10T12:36:50;33.40;63.00
25753;DHT22;13600;50.816;4.416;2022-07-10T12:39:18;33.70;62.90
25753;DHT22;13600;50.816;4.416;2022-07-10T12:44:38;37.60;57.30
25753;DHT22;13600;50.816;4.416;2022-07-10T12:49:55;39.90;52.30
25753;DHT22;13600;50.816;4.416;2022-07-10T12:52:28;37.90;52.40
25753;DHT22;13600;50.816;4.416;2022-07-10T13:00:15;37.30;54.90
25753;DHT22;13600;50.816;4.416;2022-07-10T13:02:41;37.80;54.10
25753;DHT22;13600;50.816;4.416;2022-07-10T13:05:07;37.40;53.60
25753;DHT22;13600;50.816;4.416;2022-07-10T13:07:35;35.80;55.50
25753;DHT22;13600;50.816;4.416;2022-07-10T13:10:05;35.80;55.80
25753;DHT22;13600;50.816;4.416;2022-07-10T13:12:35;37.50;55.60
25753;DHT22;13600;50.816;4.416;2022-07-10T13:15:02;37.80;54.70
25753;DHT22;13600;50.816;4.416;2022-07-10T13:17:28;38.10;54.50
25753;DHT22;13600;50.816;4.416;2022-07-10T13:19:54;37.70;54.80
25753;DHT22;13600;50.816;4.416;2022-07-10T13:22:20;39.00;53.40
25753;DHT22;13600;50.816;4.416;2022-07-10T13:24:46;40.00;52.20
25753;DHT22;13600;50.816;4.416;2022-07-10T13:27:12;39.80;52.30
25753;DHT22;13600;50.816;4.416;2022-07-10T13:29:38;41.70;49.50
25753;DHT22;13600;50.816;4.416;2022-07-10T13:32:04;42.80;47.80
25753;DHT22;13600;50.816;4.416;2022-07-10T13:34:29;42.80;46.80
25753;DHT22;13600;50.816;4.416;2022-07-10T13:36:56;42.10;48.00
25753;DHT22;13600;50.816;4.416;2022-07-10T13:39:21;42.10;46.70
25753;DHT22;13600;50.816;4.416;2022-07-10T13:41:47;41.60;47.90
25753;DHT22;13600;50.816;4.416;2022-07-10T13:44:13;42.20;47.70
25753;DHT22;13600;50.816;4.416;2022-07-10T13:46:39;42.30;46.80
25753;DHT22;13600;50.816;4.416;2022-07-10T13:49:06;42.20;47.10
25753;DHT22;13600;50.816;4.416;2022-07-10T13:51:33;42.10;46.80
25753;DHT22;13600;50.816;4.416;2022-07-10T13:53:59;40.90;46.90
25753;DHT22;13600;50.816;4.416;2022-07-10T13:56:24;40.10;48.10
25753;DHT22;13600;50.816;4.416;2022-07-10T13:58:51;39.30;48.20
25753;DHT22;13600;50.816;4.416;2022-07-10T14:01:17;38.00;49.60
25753;DHT22;13600;50.816;4.416;2022-07-10T14:03:43;36.50;51.60
25753;DHT22;13600;50.816;4.416;2022-07-10T14:06:09;35.00;53.80
25753;DHT22;13600;50.816;4.416;2022-07-10T14:08:34;34.20;55.50
25753;DHT22;13600;50.816;4.416;2022-07-10T14:11:00;36.10;54.30
25753;DHT22;13600;50.816;4.416;2022-07-10T14:13:26;37.90;52.70
25753;DHT22;13600;50.816;4.416;2022-07-10T14:15:51;37.50;51.10
25753;DHT22;13600;50.816;4.416;2022-07-10T14:18:18;37.30;50.90
25753;DHT22;13600;50.816;4.416;2022-07-10T14:21:01;36.20;52.10
25753;DHT22;13600;50.816;4.416;2022-07-10T14:23:30;35.40;53.30
25753;DHT22;13600;50.816;4.416;2022-07-10T14:25:56;35.00;54.30
25753;DHT22;13600;50.816;4.416;2022-07-10T14:28:23;36.20;54.40
25753;DHT22;13600;50.816;4.416;2022-07-10T14:30:49;36.90;52.60
25753;DHT22;13600;50.816;4.416;2022-07-10T14:33:16;36.60;53.50
25753;DHT22;13600;50.816;4.416;2022-07-10T14:35:44;36.60;52.90
25753;DHT22;13600;50.816;4.416;2022-07-10T14:38:10;35.60;52.80
25753;DHT22;13600;50.816;4.416;2022-07-10T14:40:35;34.80;54.20
25753;DHT22;13600;50.816;4.416;2022-07-10T14:43:01;34.00;56.50
25753;DHT22;13600;50.816;4.416;2022-07-10T14:45:27;33.70;57.80
25753;DHT22;13600;50.816;4.416;2022-07-10T14:47:53;33.60;56.60
25753;DHT22;13600;50.816;4.416;2022-07-10T14:50:20;34.60;56.00
25753;DHT22;13600;50.816;4.416;2022-07-10T14:52:45;34.70;55.10
25753;DHT22;13600;50.816;4.416;2022-07-10T14:55:11;33.80;56.30
25753;DHT22;13600;50.816;4.416;2022-07-10T14:57:37;33.90;56.00
25753;DHT22;13600;50.816;4.416;2022-07-10T15:00:03;34.30;56.40
25753;DHT22;13600;50.816;4.416;2022-07-10T15:02:29;34.40;56.20
25753;DHT22;13600;50.816;4.416;2022-07-10T15:04:55;34.30;55.40
25753;DHT22;13600;50.816;4.416;2022-07-10T15:07:21;34.00;56.80
25753;DHT22;13600;50.816;4.416;2022-07-10T15:09:46;34.00;56.50
25753;DHT22;13600;50.816;4.416;2022-07-10T15:12:12;33.60;56.60
25753;DHT22;13600;50.816;4.416;2022-07-10T15:14:38;33.30;57.80
25753;DHT22;13600;50.816;4.416;2022-07-10T15:17:06;33.20;56.70
25753;DHT22;13600;50.816;4.416;2022-07-10T15:19:33;32.10;57.40
25753;DHT22;13600;50.816;4.416;2022-07-10T15:21:58;31.10;58.90
25753;DHT22;13600;50.816;4.416;2022-07-10T15:24:24;30.30;61.10
25753;DHT22;13600;50.816;4.416;2022-07-10T15:26:49;30.30;62.20
25753;DHT22;13600;50.816;4.416;2022-07-10T15:29:16;30.00;62.60
25753;DHT22;13600;50.816;4.416;2022-07-10T15:31:42;29.80;65.80
25753;DHT22;13600;50.816;4.416;2022-07-10T15:34:09;29.90;63.70
25753;DHT22;13600;50.816;4.416;2022-07-10T15:36:35;29.90;64.70
25753;DHT22;13600;50.816;4.416;2022-07-10T15:39:02;30.30;63.30
25753;DHT22;13600;50.816;4.416;2022-07-10T15:41:28;30.40;63.30
25753;DHT22;13600;50.816;4.416;2022-07-10T15:43:54;30.50;64.80
25753;DHT22;13600;50.816;4.416;2022-07-10T15:46:20;30.70;62.80
25753;DHT22;13600;50.816;4.416;2022-07-10T15:48:45;30.80;63.40
25753;DHT22;13600;50.816;4.416;2022-07-10T15:51:11;30.90;62.10
25753;DHT22;13600;50.816;4.416;2022-07-10T15:53:39;30.50;63.70
25753;DHT22;13600;50.816;4.416;2022-07-10T15:56:04;30.40;63.70
25753;DHT22;13600;50.816;4.416;2022-07-10T15:58:32;30.10;63.10
25753;DHT22;13600;50.816;4.416;2022-07-10T16:01:00;29.80;63.10
25753;DHT22;13600;50.816;4.416;2022-07-10T16:03:26;29.50;64.30
25753;DHT22;13600;50.816;4.416;2022-07-10T16:05:52;29.20;66.50
25753;DHT22;13600;50.816;4.416;2022-07-10T16:08:17;29.30;65.20
25753;DHT22;13600;50.816;4.416;2022-07-10T16:10:48;29.30;65.90
25753;DHT22;13600;50.816;4.416;2022-07-10T16:13:14;29.40;66.80
25753;DHT22;13600;50.816;4.416;2022-07-10T16:15:40;29.40;67.80
25753;DHT22;13600;50.816;4.416;2022-07-10T16:18:06;29.50;66.70
25753;DHT22;13600;50.816;4.416;2022-07-10T16:20:31;29.70;66.30
25753;DHT22;13600;50.816;4.416;2022-07-10T16:23:01;29.40;65.00